Αρχική σελίδα
METAR-TAF:

METAR-TAF

Αεροδρόμια :

Foz do Iguaçu, Παρανά, Βραζιλία

γεωγραφικό πλάτος: 25-31S, γεωγραφικό μήκος: 054-35W, υψόμετρο: 180 μ

Παρών καιρός

Η αναφορά έγινε 32 λεπτά πριν, στις 03:00 UTC
Άνεμος 9 kt από Α
Θερμοκρασία 18°C
Υγρασία 83%
Πίεση 1021 hPa
Ορατότητα 10 χλμ και άνω
Δεν υπάρχουν νέφη με βάση κάτω από τα 1500 μ. και δεν υπάρχουν νέφη σωρειτομελανίτες.

METAR: SBFI 230300Z 10009KT CAVOK 18/15 Q1021

Χρόνος: 00:32 (03:32 UTC)

Πρόγνωση Καιρού

Η αναφορά έγινε 6 ώρες και 32 λεπτά πριν, στις 21:00 UTC
Η πρόγνωση ισχύει από τις 23 στις 00 UTC έως τις 23 στις 24 UTC
Άνεμος 6 kt από Α/NA
Ορατότητα 10 χλμ και άνω
Δεν υπάρχουν νέφη με βάση κάτω από τα 1500 μ. και δεν υπάρχουν νέφη σωρειτομελανίτες.

TAF: SBFI 222100Z 2300/2324 11006KT CAVOK TN16/2309Z TX27/2317Z RMK PDZ

Μετεωρολογικές αναφορές και προγνώσεις για περισσότερα από 4000 αεροδρόμια (δελτία METAR και TAF).

Οι διαθέσιμοι σταθμοί απεικονίζονται στο χάρτη με κίτρινες και κόκκινες κουκκίδες.

Μετακινήστε το ποντίκι πάνω από τις κουκκίδες για να δείτε το όνομα του σταθμού.

Στη συνέχεια, κάντε κλικ για να δείτε τις μετεωρολογικές αναφορές και τις προγνώσεις καιρού.

Για να αλλάξετε το χάρτη: κάντε κλικ στα πράσινα κουμπιά με τον μαύρο σταυρό για να ζουμάρετε, στο πράσινο κουμπί με την παύλα για να αφαιρέσετε το ζουμ ή στα πράσινα βέλη για να αντιπαραβάλλετε χάρτες.


METAR-TAF: